Time;durP1;ratioP1;P1;durP2;ratioP2;P2;SDS_P1;SDS_P2;PMS_P1;PMS_P2;Temp;Humidity;BMP_temperature;BMP_pressure;BME280_temperature;BME280_humidity;BME280_pressure;Samples;Min_cycle;Max_cycle;Signal;HPM_P1;HPM_P2
2023/09/18 00:00:45;;;;;;;8.30;7.60;;;18.10;95.80;;;17.64;93.82;97498.94;5024025;28;20540;-77
2023/09/18 00:03:13;;;;;;;9.57;8.70;;;18.10;95.70;;;17.80;93.01;97497.84;5023534;28;20550;-77
2023/09/18 00:05:40;;;;;;;8.97;8.13;;;18.00;95.80;;;17.75;93.32;97492.38;5024133;28;20817;-77
2023/09/18 00:08:08;;;;;;;9.43;8.60;;;18.00;96.10;;;17.21;95.31;97477.38;5036697;28;20557;-77
2023/09/18 00:10:36;;;;;;;8.47;7.70;;;17.80;96.50;;;17.44;95.32;97499.75;5023985;28;20463;-77
2023/09/18 00:13:04;;;;;;;8.67;7.97;;;17.80;96.80;;;17.37;96.16;97492.69;5023342;28;20965;-77
2023/09/18 00:15:31;;;;;;;9.27;8.43;;;17.70;97.10;;;17.31;96.21;97492.94;5023832;28;20461;-77
2023/09/18 00:18:01;;;;;;;9.03;8.23;;;17.80;97.00;;;17.23;96.88;97497.88;5019484;28;20466;-77
2023/09/18 00:20:28;;;;;;;9.27;8.47;;;17.70;97.00;;;17.13;97.44;97495.94;5024279;28;20466;-77
2023/09/18 00:22:57;;;;;;;9.13;8.40;;;17.60;97.50;;;17.06;97.86;97475.44;5025822;28;20798;-77
2023/09/18 00:25:24;;;;;;;9.43;8.43;;;17.50;97.90;;;16.94;97.40;97451.13;5023201;28;20465;-77
2023/09/18 00:27:51;;;;;;;9.17;8.37;;;17.60;98.20;;;17.15;96.70;97482.03;5021778;28;20444;-77
2023/09/18 00:30:20;;;;;;;8.70;8.00;;;17.60;97.20;;;17.05;97.88;97471.09;5017889;28;20459;-76
2023/09/18 00:32:49;;;;;;;8.87;8.07;;;17.50;97.60;;;17.12;96.52;97452.53;5030779;28;20483;-77
2023/09/18 00:35:19;;;;;;;8.87;7.97;;;17.60;97.30;;;17.08;96.73;97455.00;5029004;28;20852;-76
2023/09/18 00:37:46;;;;;;;8.70;7.90;;;17.60;96.70;;;17.15;96.68;97462.13;5026813;28;20950;-76
2023/09/18 00:40:14;;;;;;;8.27;7.67;;;17.60;96.90;;;16.71;96.16;97399.53;5016988;28;20952;-75
2023/09/18 00:42:41;;;;;;;8.50;7.70;;;17.60;96.40;;;16.87;95.63;97399.56;5038303;28;20457;-77
2023/09/18 00:45:09;;;;;;;8.37;7.60;;;17.60;96.20;;;16.99;96.87;97452.00;5026462;28;20806;-76
2023/09/18 00:47:38;;;;;;;8.67;7.93;;;17.50;96.80;;;16.97;97.02;97450.56;5024496;28;20450;-77
2023/09/18 00:50:08;;;;;;;9.00;8.30;;;17.40;97.00;;;16.45;97.62;97378.75;5037977;28;20468;-76
2023/09/18 00:52:37;;;;;;;8.33;7.60;;;17.30;97.30;;;16.88;97.91;97446.75;5005483;28;20573;-76
2023/09/18 00:55:09;;;;;;;8.87;8.10;;;17.30;97.60;;;16.92;97.08;97451.41;5032027;28;20468;-76
2023/09/18 00:57:36;;;;;;;8.40;7.67;;;17.30;97.10;;;16.89;96.68;97421.94;5023041;28;20999;-76
2023/09/18 01:00:05;;;;;;;8.07;7.47;;;17.30;97.70;;;16.95;96.31;97444.56;5026526;28;23486;-77
2023/09/18 01:02:33;;;;;;;8.30;7.50;;;17.40;96.80;;;17.21;94.89;97440.00;5025759;28;20551;-76
2023/09/18 01:05:00;;;;;;;8.80;8.00;;;17.40;96.90;;;17.24;93.97;97431.28;5022924;28;20514;-75
2023/09/18 01:07:28;;;;;;;7.70;7.10;;;17.40;96.50;;;17.13;93.90;97422.25;5044444;28;20457;-78
2023/09/18 01:09:58;;;;;;;8.53;7.83;;;17.30;96.20;;;17.23;93.15;97428.78;5043095;28;20450;-76
2023/09/18 01:12:36;;;;;;;7.30;6.70;;;17.40;95.90;;;17.11;93.30;97423.63;5046264;28;20499;-77
2023/09/18 01:15:13;;;;;;;8.80;8.00;;;17.30;95.70;;;17.07;93.88;97419.81;5040613;28;20453;-77
2023/09/18 01:17:40;;;;;;;8.20;7.60;;;17.30;96.40;;;17.08;93.48;97424.16;5051168;28;20469;-74
2023/09/18 01:20:11;;;;;;;7.80;7.17;;;17.20;96.40;;;17.03;92.49;97389.50;5045591;28;20485;-76
2023/09/18 01:22:40;;;;;;;8.20;7.40;;;17.30;95.80;;;17.08;92.47;97410.53;5045085;28;20451;-77
2023/09/18 01:25:08;;;;;;;9.50;7.50;;;17.30;95.40;;;17.08;92.08;97419.50;5037476;28;20510;-76
2023/09/18 01:27:35;;;;;;;7.73;7.03;;;17.30;95.10;;;17.11;92.25;97423.63;5044433;28;20456;-75
2023/09/18 01:30:04;;;;;;;8.43;7.63;;;17.30;95.30;;;17.06;92.22;97426.31;5045567;28;20485;-76
2023/09/18 01:32:33;;;;;;;8.63;7.90;;;17.30;95.20;;;17.03;92.46;97413.22;5049107;28;20469;-77
2023/09/18 01:35:05;;;;;;;8.50;7.70;;;17.20;95.20;;;16.89;92.89;97405.56;5045577;28;20471;-74
2023/09/18 01:37:34;;;;;;;7.73;7.13;;;17.20;95.50;;;16.94;92.85;97407.47;5025258;28;20544;-77
2023/09/18 01:40:07;;;;;;;8.03;7.30;;;17.10;95.50;;;16.80;93.48;97404.47;5026952;28;20462;-76
2023/09/18 01:42:36;;;;;;;7.83;7.23;;;17.10;95.70;;;16.80;93.71;97404.47;5040250;28;20452;-75
2023/09/18 01:45:05;;;;;;;8.53;7.63;;;17.00;95.80;;;16.31;94.99;97357.50;5022397;28;20941;-75
2023/09/18 01:47:32;;;;;;;7.60;6.90;;;17.00;96.30;;;16.32;94.82;97353.69;5021206;28;20477;-76
2023/09/18 01:50:06;;;;;;;7.97;7.27;;;16.90;96.40;;;16.64;94.94;97406.34;5021867;28;20453;-76
2023/09/18 01:52:34;;;;;;;7.67;6.97;;;16.80;96.80;;;16.63;94.87;97408.28;5022591;28;21305;-76
2023/09/18 01:55:04;;;;;;;8.20;7.50;;;16.80;97.00;;;16.63;95.06;97405.53;5023515;28;20461;-77
2023/09/18 01:57:32;;;;;;;7.83;7.10;;;16.80;97.30;;;16.57;94.92;97398.41;5020451;28;20455;-77
2023/09/18 01:59:59;;;;;;;7.97;7.20;;;16.80;97.30;;;16.65;95.28;97407.97;5028775;28;20590;-76
2023/09/18 02:02:27;;;;;;;8.70;7.87;;;16.70;97.30;;;16.60;95.52;97406.06;5024049;28;21333;-76
2023/09/18 02:04:54;;;;;;;8.23;7.53;;;16.70;97.60;;;16.75;94.30;97393.53;5023135;28;20942;-76
2023/09/18 02:07:21;;;;;;;8.20;7.40;;;16.80;97.60;;;16.76;93.76;97409.66;5026949;28;20473;-74
2023/09/18 02:09:50;;;;;;;8.00;7.30;;;16.90;96.50;;;16.73;94.07;97406.63;5026524;28;20460;-74
2023/09/18 02:12:18;;;;;;;8.53;7.80;;;16.90;96.20;;;16.29;93.71;97326.94;5030122;28;20479;-76
2023/09/18 02:14:46;;;;;;;7.47;6.77;;;17.00;96.00;;;16.67;93.72;97375.81;5024098;28;20942;-75
2023/09/18 02:17:14;;;;;;;8.57;7.77;;;17.00;95.80;;;16.73;94.09;97387.53;5042941;28;20449;-76
2023/09/18 02:19:41;;;;;;;8.60;7.80;;;17.00;96.00;;;16.76;93.61;97384.28;5023615;28;20464;-76
2023/09/18 02:22:09;;;;;;;8.73;8.00;;;17.00;95.60;;;16.59;94.33;97379.88;5023774;28;20461;-77
2023/09/18 02:24:36;;;;;;;10.00;7.80;;;17.00;95.70;;;16.59;94.81;97385.34;5026252;28;20672;-76
2023/09/18 02:27:05;;;;;;;8.10;7.40;;;16.90;96.30;;;16.53;95.37;97375.53;5023949;28;20530;-76
2023/09/18 02:29:34;;;;;;;8.33;7.53;;;16.70;96.90;;;16.55;95.14;97385.06;5024457;28;20459;-77
2023/09/18 02:32:02;;;;;;;9.23;7.60;;;16.70;97.20;;;16.56;95.45;97370.34;5027648;28;20465;-76
2023/09/18 02:34:30;;;;;;;9.17;8.40;;;16.70;97.10;;;16.57;95.23;97360.25;5029565;28;20451;-76
2023/09/18 02:36:57;;;;;;;9.33;8.53;;;16.80;97.30;;;16.59;95.29;97362.72;5026193;28;20480;-74
2023/09/18 02:39:24;;;;;;;8.47;7.77;;;16.80;97.10;;;16.51;95.62;97364.06;5026613;28;20539;-75
2023/09/18 02:41:52;;;;;;;9.03;8.23;;;16.80;97.20;;;16.56;95.60;97361.34;5022530;28;21009;-76
2023/09/18 02:44:19;;;;;;;8.40;7.70;;;16.80;97.20;;;16.48;95.29;97356.44;5022580;28;20472;-74
2023/09/18 02:46:48;;;;;;;8.83;8.03;;;16.80;96.60;;;16.44;95.25;97337.06;5023436;28;21197;-76
2023/09/18 02:49:17;;;;;;;9.40;8.50;;;16.80;96.70;;;16.56;95.45;97358.63;5029857;28;20471;-78
2023/09/18 02:51:44;;;;;;;8.70;8.00;;;16.80;96.80;;;16.33;95.47;97338.13;5029602;28;20498;-76
2023/09/18 02:54:14;;;;;;;8.03;7.43;;;16.70;96.90;;;16.10;95.61;97299.41;5026906;28;20885;-74
2023/09/18 02:56:41;;;;;;;8.33;7.63;;;16.70;97.10;;;16.45;96.15;97365.97;5026956;28;20454;-75
2023/09/18 02:59:09;;;;;;;8.80;7.97;;;16.60;97.40;;;16.54;96.16;97360.78;5023469;28;20806;-75
2023/09/18 03:01:36;;;;;;;9.10;8.30;;;16.70;98.00;;;16.54;96.01;97360.78;5027949;28;20469;-74
2023/09/18 03:04:06;;;;;;;8.20;7.50;;;16.70;97.90;;;16.45;96.44;97356.94;5026420;28;20461;-75
2023/09/18 03:06:33;;;;;;;9.43;8.60;;;16.70;97.60;;;16.44;95.95;97334.34;5025794;28;20460;-74
2023/09/18 03:09:02;;;;;;;9.23;8.10;;;16.70;97.60;;;16.37;96.35;97340.06;5024471;28;20469;-75
2023/09/18 03:11:30;;;;;;;8.87;7.97;;;16.70;97.50;;;16.47;96.47;97349.34;5026505;28;20456;-74
2023/09/18 03:13:57;;;;;;;9.67;8.70;;;16.70;97.70;;;16.47;96.62;97338.44;5032676;28;20474;-76
2023/09/18 03:16:25;;;;;;;8.37;7.50;;;16.60;98.00;;;16.58;95.79;97331.88;5041510;28;20552;-74
2023/09/18 03:18:52;;;;;;;8.60;7.90;;;16.70;98.00;;;16.61;95.57;97341.44;5027940;28;20554;-74
2023/09/18 03:21:20;;;;;;;9.60;8.57;;;16.80;97.50;;;16.47;96.11;97330.25;5028923;28;20967;-74
2023/09/18 03:23:48;;;;;;;9.27;8.33;;;16.70;97.50;;;16.41;96.77;97330.25;5027610;28;20450;-75
2023/09/18 03:26:16;;;;;;;9.57;8.70;;;16.70;97.80;;;16.53;96.33;97318.25;5029973;28;20487;-76
2023/09/18 03:28:44;;;;;;;8.60;7.80;;;16.80;97.30;;;16.28;97.14;97295.31;5027058;28;20448;-77
2023/09/18 03:31:11;;;;;;;10.93;8.27;;;16.90;97.10;;;16.31;97.46;97297.53;5028566;28;20530;-76
2023/09/18 03:33:38;;;;;;;10.67;9.70;;;16.90;96.80;;;16.13;97.48;97280.59;5027870;28;20543;-76
2023/09/18 03:36:07;;;;;;;9.10;8.20;;;16.90;96.70;;;16.33;98.26;97316.31;5022959;28;20449;-76
2023/09/18 03:38:37;;;;;;;10.60;8.07;;;16.90;96.90;;;16.26;98.63;97301.06;5025622;28;20455;-76
2023/09/18 03:41:04;;;;;;;9.63;8.70;;;16.80;97.20;;;16.26;98.30;97295.63;5023253;28;20449;-75
2023/09/18 03:43:32;;;;;;;9.17;8.37;;;16.80;97.10;;;16.18;98.96;97303.50;5024116;28;20922;-77
2023/09/18 03:46:05;;;;;;;9.63;8.73;;;16.80;97.20;;;16.12;99.76;97299.94;5027002;28;20468;-76
2023/09/18 03:48:37;;;;;;;8.10;7.40;;;16.60;97.80;;;16.07;100.00;97281.66;5033664;28;20459;-77
2023/09/18 03:51:05;;;;;;;10.07;9.27;;;16.60;98.60;;;16.16;100.00;97292.84;5023148;28;20463;-77
2023/09/18 03:53:33;;;;;;;8.73;7.70;;;16.60;98.80;;;16.16;100.00;97286.59;5017860;28;21110;-76
2023/09/18 03:56:02;;;;;;;9.70;7.60;;;16.60;98.80;;;16.08;100.00;97293.41;5025484;28;20465;-76
2023/09/18 03:58:30;;;;;;;9.40;8.63;;;16.60;98.90;;;16.08;100.00;97283.31;5019071;28;20523;-77
2023/09/18 04:00:57;;;;;;;8.20;7.50;;;16.50;99.10;;;15.99;100.00;97258.50;5022182;28;20454;-73
2023/09/18 04:03:25;;;;;;;9.77;8.97;;;16.50;99.90;;;16.25;100.00;97282.25;5007455;28;20449;-76
2023/09/18 04:05:53;;;;;;;9.60;8.70;;;16.60;99.30;;;15.97;100.00;97281.63;5025548;28;20448;-77
2023/09/18 04:08:21;;;;;;;9.30;8.50;;;16.60;98.80;;;15.97;100.00;97296.09;5033364;28;20472;-76
2023/09/18 04:10:48;;;;;;;9.60;8.70;;;16.50;99.40;;;15.93;100.00;97294.16;5026967;28;20467;-76
2023/09/18 04:13:17;;;;;;;8.60;7.90;;;16.40;99.90;;;16.00;100.00;97292.03;5033467;28;20471;-77
2023/09/18 04:15:45;;;;;;;9.80;8.60;;;16.40;99.90;;;15.99;100.00;97290.34;5025283;28;20860;-77
2023/09/18 04:18:12;;;;;;;9.70;8.70;;;16.40;99.90;;;16.11;100.00;97279.22;5040728;28;21029;-78
2023/09/18 04:20:40;;;;;;;8.97;8.13;;;16.50;99.90;;;16.26;100.00;97278.44;5022441;28;20468;-77
2023/09/18 04:23:23;;;;;;;8.83;8.13;;;16.70;99.80;;;16.25;100.00;97290.41;5040571;28;20458;-77
2023/09/18 04:25:52;;;;;;;8.87;8.07;;;16.70;99.10;;;16.10;100.00;97291.22;5022098;28;20503;-77
2023/09/18 04:28:23;;;;;;;10.50;8.63;;;16.60;99.00;;;16.02;100.00;97294.47;5035508;28;20472;-78
2023/09/18 04:30:51;;;;;;;10.10;9.10;;;16.60;99.70;;;16.06;100.00;97312.72;5018940;28;20447;-76
2023/09/18 04:33:18;;;;;;;9.57;8.67;;;16.60;99.90;;;16.21;100.00;97331.00;5021893;28;20550;-75
2023/09/18 04:35:46;;;;;;;9.07;8.27;;;16.80;99.90;;;16.34;100.00;97310.63;5024456;28;20455;-78
2023/09/18 04:38:15;;;;;;;8.60;7.90;;;16.90;98.80;;;16.47;99.46;97279.28;5020636;28;21035;-76
2023/09/18 04:40:42;;;;;;;10.50;8.53;;;17.00;97.90;;;16.75;97.76;97306.25;5039935;28;20457;-77
2023/09/18 04:43:10;;;;;;;9.30;8.40;;;17.20;97.00;;;16.80;96.98;97284.44;5018400;28;20503;-77
2023/09/18 04:45:39;;;;;;;10.23;9.03;;;17.30;96.70;;;16.85;96.31;97248.97;5027647;28;20444;-78
2023/09/18 04:48:08;;;;;;;9.90;8.93;;;17.40;96.00;;;16.86;96.39;97261.53;5038913;28;20452;-77
2023/09/18 04:50:36;;;;;;;9.70;8.90;;;17.40;95.80;;;16.87;96.51;97259.63;5018121;28;20463;-77
2023/09/18 04:53:04;;;;;;;10.00;9.00;;;17.50;95.70;;;16.88;96.61;97251.16;5024992;28;20473;-77
2023/09/18 04:55:32;;;;;;;9.03;8.30;;;17.50;95.70;;;17.02;95.31;97259.63;5039572;28;20466;-77
2023/09/18 04:57:59;;;;;;;9.53;8.63;;;17.50;95.20;;;17.24;94.47;97264.75;5020816;28;20446;-77
2023/09/18 05:00:27;;;;;;;9.83;9.03;;;17.70;95.20;;;17.22;93.26;97245.13;5023220;28;20464;-76
2023/09/18 05:02:57;;;;;;;10.10;8.53;;;17.80;94.50;;;17.25;93.75;97271.03;5024237;28;20494;-77
2023/09/18 05:05:25;;;;;;;9.97;8.87;;;17.80;94.30;;;17.21;93.76;97259.88;5022630;28;20464;-77
2023/09/18 05:07:52;;;;;;;8.40;7.70;;;17.80;94.20;;;16.97;92.02;97222.22;5033822;28;20461;-77
2023/09/18 05:10:20;;;;;;;9.57;8.67;;;17.90;93.90;;;17.33;92.96;97297.75;5019031;28;20452;-79
2023/09/18 05:12:49;;;;;;;8.97;8.07;;;17.80;94.10;;;17.33;92.95;97329.69;5021038;28;20460;-80
2023/09/18 05:15:16;;;;;;;9.00;8.10;;;17.80;94.20;;;17.32;92.83;97281.66;5020215;28;20479;-80
2023/09/18 05:17:51;;;;;;;11.03;7.70;;;17.90;94.30;;;17.56;92.10;97314.59;5020634;28;20546;-84
2023/09/18 05:20:20;;;;;;;8.63;7.93;;;18.00;94.10;;;17.61;92.31;97319.25;5023496;28;20457;-85
2023/09/18 05:22:49;;;;;;;8.97;8.20;;;18.00;94.20;;;17.66;92.11;97324.69;5020937;28;20490;-85
2023/09/18 05:25:18;;;;;;;9.83;8.93;;;18.10;94.10;;;17.73;91.61;97330.69;5028165;28;20516;-77
2023/09/18 05:27:45;;;;;;;8.63;7.83;;;18.20;94.00;;;17.66;91.78;97324.69;5021576;28;20463;-78
2023/09/18 05:30:15;;;;;;;8.90;8.00;;;18.20;93.90;;;17.82;90.92;97348.13;5042567;28;20841;-82
2023/09/18 05:32:44;;;;;;;8.67;7.97;;;18.30;93.80;;;18.05;89.05;97351.34;5019483;28;20958;-83
2023/09/18 05:35:12;;;;;;;8.60;7.90;;;18.40;93.40;;;18.47;86.24;97379.25;5032798;28;20489;-81
2023/09/18 05:37:41;;;;;;;8.37;7.67;;;18.70;92.70;;;18.49;86.33;97370.78;5017158;28;21356;-81
2023/09/18 05:40:12;;;;;;;8.47;7.80;;;18.80;92.30;;;18.47;85.88;97375.72;5022173;28;21258;-79
2023/09/18 05:42:42;;;;;;;8.93;8.03;;;18.90;92.10;;;18.51;85.86;97382.25;5018297;28;20530;-80
2023/09/18 05:45:12;;;;;;;9.53;8.67;;;19.00;92.00;;;18.65;85.00;97390.63;5017307;28;20820;-77
2023/09/18 05:47:39;;;;;;;9.17;8.37;;;19.10;91.80;;;18.82;83.86;97388.34;5033386;28;20959;-80
2023/09/18 05:50:09;;;;;;;9.70;8.73;;;19.10;91.70;;;18.69;84.15;97378.84;5018122;28;20504;-80
2023/09/18 05:52:37;;;;;;;9.07;8.27;;;19.20;91.40;;;18.79;84.12;97377.16;5023512;28;20511;-80
2023/09/18 05:55:07;;;;;;;13.00;10.17;;;19.20;91.40;;;18.91;83.75;97374.03;5019446;28;20466;-85
2023/09/18 05:57:35;;;;;;;10.53;9.43;;;19.30;91.40;;;18.85;83.41;97359.59;5019082;28;20486;-80
2023/09/18 06:00:06;;;;;;;9.77;8.63;;;19.30;91.30;;;18.67;83.71;97348.22;5016941;28;20465;-79
2023/09/18 06:02:33;;;;;;;11.00;8.80;;;19.30;91.10;;;18.92;82.33;97327.25;5015485;28;20462;-79
2023/09/18 06:05:06;;;;;;;10.60;9.50;;;19.40;91.10;;;18.99;81.98;97343.38;5018807;28;20457;-81
2023/09/18 06:07:33;;;;;;;10.90;9.90;;;19.50;90.90;;;18.81;82.60;97342.09;5028684;28;20456;-78
2023/09/18 06:10:01;;;;;;;11.13;10.00;;;19.40;90.80;;;18.86;83.09;97338.53;5029376;28;20500;-76
2023/09/18 06:12:30;;;;;;;9.63;8.73;;;19.30;90.90;;;19.09;81.93;97336.97;5023082;28;20818;-77
2023/09/18 06:14:57;;;;;;;9.27;8.30;;;19.50;90.90;;;19.16;81.22;97353.06;5022166;28;20468;-78
2023/09/18 06:17:25;;;;;;;9.03;8.23;;;19.60;90.70;;;19.29;80.58;97332.41;5021159;28;20461;-76
2023/09/18 06:19:53;;;;;;;9.97;8.60;;;19.70;90.60;;;19.16;80.24;97322.97;5030984;28;20962;-80
2023/09/18 06:22:20;;;;;;;10.17;8.70;;;19.80;90.40;;;18.89;81.87;97335.22;5035540;28;20548;-77
2023/09/18 06:24:48;;;;;;;8.63;7.80;;;19.60;90.50;;;19.17;81.26;97338.28;5016110;28;20843;-80
2023/09/18 06:27:15;;;;;;;7.90;7.23;;;19.60;90.60;;;18.66;80.98;97289.16;5014638;28;20472;-78
2023/09/18 06:29:43;;;;;;;8.83;8.13;;;19.60;90.40;;;18.89;82.34;97333.31;5017371;28;20491;-78
2023/09/18 06:32:11;;;;;;;9.47;8.57;;;19.50;90.50;;;18.72;82.55;97327.41;5021322;28;20547;-77
2023/09/18 06:34:42;;;;;;;20.57;8.63;;;19.40;90.60;;;18.75;81.63;97288.53;5018059;28;20478;-78
2023/09/18 06:37:12;;;;;;;8.70;7.87;;;19.50;90.70;;;19.21;80.74;97342.06;5019367;28;20505;-77
2023/09/18 06:39:39;;;;;;;9.90;8.10;;;19.70;90.50;;;19.26;80.46;97358.47;5017195;28;20448;-79
2023/09/18 06:42:07;;;;;;;9.60;8.70;;;19.80;90.50;;;19.36;80.08;97330.16;5019331;28;20468;-78
2023/09/18 06:44:35;;;;;;;9.50;8.00;;;19.90;90.40;;;19.89;77.53;97332.03;5014161;28;20457;-78
2023/09/18 06:47:04;;;;;;;10.50;8.23;;;20.30;90.10;;;20.10;76.78;97329.88;5022149;28;20454;-78
2023/09/18 06:49:32;;;;;;;8.90;8.10;;;20.50;90.00;;;20.24;75.76;97343.66;5022317;28;20466;-79
2023/09/18 06:52:00;;;;;;;8.80;7.90;;;20.70;89.50;;;20.16;75.66;97341.56;5019375;28;20496;-79
2023/09/18 06:54:27;;;;;;;8.70;7.83;;;20.70;89.20;;;20.21;76.05;97346.16;5020479;28;20473;-79
2023/09/18 06:56:55;;;;;;;8.77;7.97;;;20.70;89.20;;;20.32;75.04;97328.47;5023139;28;20445;-79
2023/09/18 06:59:22;;;;;;;8.43;7.73;;;20.80;88.80;;;19.81;77.57;97336.22;5038266;28;20468;-78
2023/09/18 07:01:51;;;;;;;8.90;7.80;;;20.50;89.20;;;19.99;77.00;97331.09;5047911;28;20449;-79
2023/09/18 07:04:19;;;;;;;9.07;8.17;;;20.60;89.30;;;19.98;77.72;97339.59;5049665;28;20516;-80
2023/09/18 07:06:47;;;;;;;8.73;7.83;;;20.50;89.50;;;20.01;77.39;97334.38;5047286;28;20457;-82
2023/09/18 07:09:15;;;;;;;9.00;8.10;;;20.60;89.30;;;20.08;76.76;97329.31;5024659;28;20498;-80
2023/09/18 07:11:43;;;;;;;8.10;7.50;;;20.70;89.20;;;19.79;76.89;97289.13;5037990;28;20468;-79
2023/09/18 07:14:10;;;;;;;8.00;7.20;;;20.70;89.20;;;20.16;76.44;97348.97;5024246;28;20470;-79
2023/09/18 07:16:37;;;;;;;8.50;7.77;;;20.70;89.10;;;20.15;75.99;97292.50;5036348;28;20684;-79
2023/09/18 07:19:05;;;;;;;10.40;8.07;;;20.80;89.20;;;20.69;74.97;97347.94;5031706;28;20454;-78
2023/09/18 07:21:36;;;;;;;9.00;7.40;;;21.10;88.80;;;20.70;74.76;97341.34;5040252;28;20476;-79
2023/09/18 07:24:03;;;;;;;7.80;7.10;;;21.20;88.60;;;20.99;73.42;97326.63;5034189;28;20459;-82
2023/09/18 07:26:32;;;;;;;9.00;7.60;;;21.50;88.30;;;21.15;72.00;97321.69;5023091;28;20456;-79
2023/09/18 07:28:59;;;;;;;9.17;7.13;;;21.70;87.70;;;21.56;71.16;97346.78;5035024;28;20475;-79
2023/09/18 07:31:27;;;;;;;9.67;6.90;;;22.00;87.40;;;21.96;69.88;97333.38;5019690;28;20519;-81
2023/09/18 07:33:55;;;;;;;8.00;7.20;;;22.30;87.00;;;22.21;68.14;97318.25;5025529;28;20477;-79
2023/09/18 07:36:22;;;;;;;7.20;6.50;;;22.60;86.10;;;22.41;66.52;97312.59;5020320;28;20681;-80
2023/09/18 07:38:51;;;;;;;7.40;6.70;;;22.80;85.00;;;22.17;67.24;97311.75;5021430;28;20860;-77
2023/09/18 07:41:21;;;;;;;7.30;6.60;;;22.60;84.80;;;22.54;65.33;97302.69;5021871;28;20471;-81
2023/09/18 07:43:48;;;;;;;7.87;7.07;;;22.90;84.50;;;22.56;65.82;97312.28;5017080;28;20692;-80
2023/09/18 07:46:16;;;;;;;8.10;6.83;;;23.00;84.20;;;22.40;66.19;97308.22;5017853;28;21366;-77
2023/09/18 07:48:43;;;;;;;6.43;5.80;;;22.90;84.00;;;22.34;66.34;97316.59;5019552;28;20454;-77
2023/09/18 07:51:12;;;;;;;8.63;7.10;;;22.90;84.00;;;22.25;66.99;97323.13;5023128;28;20473;-79
2023/09/18 07:53:41;;;;;;;7.00;6.40;;;22.80;84.10;;;22.39;66.30;97323.13;5015169;28;20473;-77
2023/09/18 07:56:10;;;;;;;6.57;5.77;;;22.90;84.10;;;21.82;67.65;97327.88;5036412;28;20481;-79
2023/09/18 07:58:38;;;;;;;6.47;5.83;;;22.50;83.90;;;22.06;67.34;97338.66;5019168;28;20941;-76
2023/09/18 08:01:08;;;;;;;9.40;6.17;;;22.40;84.20;;;22.31;66.48;97322.72;5023129;28;20473;-76
2023/09/18 08:03:36;;;;;;;7.43;6.73;;;22.70;84.30;;;22.64;65.78;97363.81;5015666;28;20480;-78
2023/09/18 08:06:04;;;;;;;6.93;6.07;;;22.90;83.90;;;22.52;65.47;97315.97;5019129;28;20461;-78
2023/09/18 08:08:33;;;;;;;7.00;6.37;;;23.10;83.80;;;22.96;64.19;97363.09;5019672;28;20982;-75
2023/09/18 08:11:08;;;;;;;7.83;6.33;;;23.30;83.10;;;22.71;64.63;97346.06;5020902;28;21003;-78
2023/09/18 08:13:37;;;;;;;8.73;6.13;;;23.30;82.70;;;22.58;65.49;97356.00;5018373;28;20513;-78
2023/09/18 08:16:07;;;;;;;6.60;6.00;;;23.10;83.00;;;22.78;64.96;97351.94;5014289;28;20537;-80
2023/09/18 08:18:34;;;;;;;6.47;5.90;;;23.20;83.00;;;22.89;64.07;97349.75;5014399;28;20461;-81
2023/09/18 08:21:04;;;;;;;10.17;6.07;;;23.30;82.50;;;22.80;63.60;97305.63;5020181;28;20462;-81
2023/09/18 08:23:32;;;;;;;6.03;5.57;;;23.40;82.40;;;23.03;63.65;97353.25;5023029;28;20458;-80
2023/09/18 08:26:01;;;;;;;6.93;5.87;;;23.40;82.30;;;23.11;62.60;97293.03;5036136;28;21373;-81
2023/09/18 08:28:28;;;;;;;7.50;6.10;;;23.70;82.10;;;23.82;60.41;97332.78;5025514;28;20459;-80
2023/09/18 08:30:58;;;;;;;7.07;6.37;;;23.90;81.20;;;24.10;60.76;97332.56;5031560;28;20498;-81
2023/09/18 08:33:25;;;;;;;8.67;6.50;;;24.20;81.30;;;24.41;58.89;97337.16;5026661;28;20883;-81
2023/09/18 08:35:53;;;;;;;6.30;5.70;;;24.50;80.50;;;25.23;57.00;97343.94;5022424;28;21036;-80
2023/09/18 08:38:20;;;;;;;9.67;5.43;;;25.00;79.90;;;25.39;55.74;97353.31;5020220;28;21111;-81
2023/09/18 08:40:49;;;;;;;9.90;5.00;;;25.40;78.80;;;25.41;55.13;97359.34;5021640;28;20456;-82
2023/09/18 08:43:18;;;;;;;6.83;5.13;;;25.50;77.70;;;25.35;54.87;97368.16;5027924;28;20564;-81
2023/09/18 08:45:52;;;;;;;9.27;5.23;;;25.50;77.00;;;25.30;55.05;97360.84;5033605;28;20519;-82
2023/09/18 08:48:22;;;;;;;9.50;5.23;;;25.40;76.70;;;25.00;56.07;97349.66;5023890;28;20534;-81
2023/09/18 08:50:52;;;;;;;8.87;6.00;;;25.30;76.90;;;25.08;56.02;97348.84;5036810;28;20464;-82
2023/09/18 08:53:20;;;;;;;9.00;5.73;;;25.20;77.20;;;24.99;55.61;97354.38;5022549;28;20461;-82
2023/09/18 08:55:47;;;;;;;8.83;5.83;;;25.10;76.70;;;24.98;54.91;97355.50;5021635;28;20547;-81
2023/09/18 08:58:19;;;;;;;12.13;4.50;;;25.10;75.70;;;24.96;54.93;97357.00;5018355;28;20475;-80
2023/09/18 09:00:47;;;;;;;8.40;4.87;;;25.20;76.00;;;24.98;55.39;97354.72;5023197;28;20451;-81
2023/09/18 09:03:14;;;;;;;5.73;4.63;;;25.10;76.00;;;24.76;54.63;97342.69;5014814;28;20456;-81
2023/09/18 09:05:43;;;;;;;11.10;4.97;;;25.10;75.20;;;24.80;54.54;97349.22;5022613;28;20444;-80
2023/09/18 09:08:10;;;;;;;5.63;4.50;;;25.10;74.80;;;24.90;54.84;97350.81;5028460;28;20524;-81
2023/09/18 09:10:37;;;;;;;11.20;4.60;;;25.10;75.00;;;24.44;53.97;97242.63;5095509;22;20465;-80
2023/09/18 09:13:06;;;;;;;6.07;4.47;;;25.20;74.60;;;25.28;53.61;97343.78;5278431;22;20522;-72
2023/09/18 09:15:45;;;;;;;7.97;4.80;;;25.40;74.40;;;25.59;52.90;97346.28;5063642;28;20471;-82
2023/09/18 09:18:15;;;;;;;9.63;4.30;;;25.70;74.10;;;25.83;52.94;97339.38;5053025;28;20446;-82
2023/09/18 09:20:57;;;;;;;4.17;3.70;;;25.90;74.30;;;25.77;52.12;97340.69;5061771;28;20545;-83
2023/09/18 09:23:25;;;;;;;9.10;4.20;;;25.90;73.10;;;25.58;51.58;97338.34;5062497;28;20467;-81
2023/09/18 09:25:54;;;;;;;5.30;3.27;;;25.80;72.40;;;25.71;51.29;97325.44;5060005;28;20927;-84
2023/09/18 09:28:31;;;;;;;4.23;3.80;;;25.80;72.00;;;26.00;50.76;97299.72;5061286;28;20464;-82
2023/09/18 09:31:03;;;;;;;10.47;3.70;;;26.20;72.10;;;26.04;50.54;97305.41;5068760;28;20456;-80
2023/09/18 09:33:31;;;;;;;6.00;3.83;;;26.20;71.30;;;26.08;50.47;97319.38;5061848;28;20456;-79
2023/09/18 09:36:00;;;;;;;4.80;3.30;;;26.30;71.10;;;25.83;50.75;97317.25;5053648;28;20487;-76
2023/09/18 09:38:33;;;;;;;5.33;3.60;;;26.10;70.80;;;26.06;50.46;97310.59;5047464;28;20492;-79
2023/09/18 09:41:02;;;;;;;4.93;3.93;;;26.20;71.00;;;26.39;49.60;97321.81;5063723;28;20844;-79
2023/09/18 09:43:33;;;;;;;6.90;3.60;;;26.50;70.40;;;26.38;48.82;97313.84;5068626;28;20827;-79
2023/09/18 09:46:04;;;;;;;3.80;3.40;;;26.50;69.60;;;26.17;49.24;97312.66;5057819;28;20569;-79
2023/09/18 09:48:31;;;;;;;6.23;3.10;;;26.40;69.40;;;26.20;49.30;97319.50;5065464;28;20454;-78
2023/09/18 09:51:02;;;;;;;4.30;3.67;;;26.40;69.30;;;26.16;49.32;97329.59;5075934;28;20441;-76
2023/09/18 09:53:46;;;;;;;6.20;3.63;;;26.30;69.20;;;25.90;50.15;97325.00;5080977;28;20455;-75
2023/09/18 09:56:14;;;;;;;12.93;3.33;;;26.20;69.30;;;26.12;49.62;97334.97;5072521;28;20499;-75
2023/09/18 09:58:43;;;;;;;5.20;3.40;;;26.20;69.20;;;26.16;49.57;97335.94;5073370;28;20449;-75
2023/09/18 10:01:18;;;;;;;6.60;3.50;;;26.30;69.30;;;26.01;49.75;97339.28;5063940;28;20509;-79
2023/09/18 10:03:46;;;;;;;3.80;3.40;;;26.20;69.00;;;26.13;49.69;97341.31;5060607;28;20890;-78
2023/09/18 10:06:15;;;;;;;6.13;3.03;;;26.30;69.00;;;26.33;49.18;97334.22;5071134;28;20476;-78
2023/09/18 10:08:43;;;;;;;7.87;3.30;;;26.40;69.00;;;26.33;49.09;97334.22;5066230;28;20455;-75
2023/09/18 10:11:16;;;;;;;5.70;3.20;;;26.40;68.60;;;26.25;49.46;97337.88;5057127;28;20469;-78
2023/09/18 10:13:49;;;;;;;8.80;3.27;;;26.40;68.90;;;26.19;48.37;97339.19;5063096;28;20478;-79
2023/09/18 10:16:20;;;;;;;8.33;2.60;;;26.40;67.80;;;26.17;47.77;97347.81;5059842;28;20563;-78
2023/09/18 10:18:59;;;;;;;9.90;2.80;;;26.30;67.10;;;26.52;47.21;97342.06;5058420;28;20517;-77
2023/09/18 10:21:35;;;;;;;5.20;2.63;;;26.40;67.00;;;26.30;47.08;97341.22;5057667;28;20456;-76
2023/09/18 10:24:16;;;;;;;4.70;2.50;;;26.50;66.70;;;26.13;47.08;97349.63;5062272;28;20461;-77